Time;durP1;ratioP1;P1;durP2;ratioP2;P2;SDS_P1;SDS_P2;PMS_P1;PMS_P2;Temp;Humidity;BMP_temperature;BMP_pressure;BME280_temperature;BME280_humidity;BME280_pressure;Samples;Min_cycle;Max_cycle;Signal;HPM_P1;HPM_P2
2023/02/26 00:02:17;;;;;;;1.55;1.00;;;18.20;70.90;;;;;;4994217;28;20030;-69
2023/02/26 00:04:43;;;;;;;1.95;0.90;;;18.20;71.00;;;;;;4993962;28;20366;-68
2023/02/26 00:07:09;;;;;;;2.72;0.90;;;18.20;71.00;;;;;;4994152;28;20018;-69
2023/02/26 00:09:34;;;;;;;7.40;0.70;;;18.20;71.10;;;;;;4992868;28;20022;-69
2023/02/26 00:12:00;;;;;;;1.80;0.85;;;18.10;71.30;;;;;;4992547;28;20428;-69
2023/02/26 00:14:26;;;;;;;1.73;0.85;;;18.10;71.10;;;;;;4992516;28;20588;-69
2023/02/26 00:17:07;;;;;;;2.53;0.88;;;18.10;71.20;;;;;;4993734;28;20046;-69
2023/02/26 00:19:33;;;;;;;1.25;0.70;;;18.10;71.20;;;;;;4993811;28;20378;-69
2023/02/26 00:21:59;;;;;;;1.25;0.70;;;18.10;71.30;;;;;;4992135;28;20050;-69
2023/02/26 00:24:25;;;;;;;1.38;0.70;;;18.00;71.30;;;;;;4992157;28;20056;-68
2023/02/26 00:26:50;;;;;;;2.75;0.70;;;18.00;71.30;;;;;;4993665;28;20049;-69
2023/02/26 00:29:16;;;;;;;3.30;0.90;;;18.00;71.50;;;;;;4993416;28;20029;-68
2023/02/26 00:31:42;;;;;;;2.22;1.20;;;18.00;71.50;;;;;;4993744;28;20101;-69
2023/02/26 00:34:13;;;;;;;2.67;0.77;;;18.00;71.50;;;;;;4993489;28;20033;-68
2023/02/26 00:36:49;;;;;;;1.13;0.80;;;18.00;71.60;;;;;;4992475;28;20018;-68
2023/02/26 00:39:45;;;;;;;1.23;0.75;;;17.90;71.70;;;;;;4992192;28;20027;-68
2023/02/26 00:42:12;;;;;;;2.17;0.98;;;17.90;71.80;;;;;;4992146;28;20377;-69
2023/02/26 00:44:38;;;;;;;4.20;0.90;;;17.90;71.90;;;;;;4992076;28;20023;-69
2023/02/26 00:47:19;;;;;;;2.92;0.80;;;17.90;71.80;;;;;;4992338;28;20040;-68
2023/02/26 00:50:19;;;;;;;2.95;0.52;;;17.90;72.10;;;;;;4992617;28;20066;-68
2023/02/26 00:53:08;;;;;;;1.85;0.90;;;17.90;72.00;;;;;;4993823;28;20377;-69
2023/02/26 00:55:33;;;;;;;2.03;0.70;;;17.90;72.10;;;;;;4992656;28;20026;-68
2023/02/26 00:57:59;;;;;;;3.22;0.82;;;17.90;72.30;;;;;;4993521;28;20443;-68
2023/02/26 01:00:24;;;;;;;3.50;0.65;;;17.90;72.20;;;;;;4993733;28;20534;-69
2023/02/26 01:02:50;;;;;;;0.82;0.40;;;17.80;72.30;;;;;;4992321;28;20049;-68
2023/02/26 01:05:17;;;;;;;1.50;0.70;;;17.80;72.10;;;;;;4990807;28;20112;-69
2023/02/26 01:08:00;;;;;;;2.70;0.70;;;17.80;72.30;;;;;;4993044;28;20400;-68
2023/02/26 01:10:26;;;;;;;1.15;0.63;;;17.80;72.40;;;;;;4993183;28;20062;-68
2023/02/26 01:12:52;;;;;;;5.00;0.77;;;17.70;72.30;;;;;;4992745;28;20029;-68
2023/02/26 01:15:18;;;;;;;1.95;0.52;;;17.80;72.30;;;;;;4992874;28;20109;-68
2023/02/26 01:18:05;;;;;;;1.83;0.50;;;17.70;72.30;;;;;;4993704;28;20023;-68
2023/02/26 01:20:48;;;;;;;4.43;1.05;;;17.70;72.30;;;;;;4992234;28;20031;-68
2023/02/26 01:23:35;;;;;;;6.60;0.73;;;17.70;72.40;;;;;;4991185;28;20022;-68
2023/02/26 01:26:28;;;;;;;2.35;0.70;;;17.70;72.40;;;;;;4991816;28;20029;-69
2023/02/26 01:28:54;;;;;;;0.50;0.50;;;17.70;72.50;;;;;;4988640;28;20066;-68
2023/02/26 01:31:42;;;;;;;12.25;0.80;;;17.70;72.50;;;;;;4990948;28;20038;-68
2023/02/26 01:34:19;;;;;;;1.38;0.63;;;17.70;72.50;;;;;;4990751;28;20022;-68
2023/02/26 01:36:59;;;;;;;9.52;1.02;;;17.60;72.60;;;;;;4994748;28;20034;-69
2023/02/26 01:39:28;;;;;;;1.58;0.63;;;17.60;72.50;;;;;;4994429;28;20076;-68
2023/02/26 01:41:54;;;;;;;4.55;0.60;;;17.60;72.50;;;;;;4994183;28;20069;-69
2023/02/26 01:44:30;;;;;;;1.13;0.80;;;17.60;72.60;;;;;;4994195;28;20015;-68
2023/02/26 01:47:16;;;;;;;0.70;0.57;;;17.60;72.60;;;;;;4994380;28;20076;-68
2023/02/26 01:49:42;;;;;;;2.80;0.90;;;17.60;72.60;;;;;;4994312;28;20049;-68
2023/02/26 01:52:46;;;;;;;2.30;0.77;;;17.60;72.60;;;;;;4994031;28;20121;-68
2023/02/26 01:55:12;;;;;;;1.77;0.70;;;17.50;72.60;;;;;;4995155;28;20029;-68
2023/02/26 01:57:37;;;;;;;1.45;0.80;;;17.50;72.70;;;;;;4994154;28;20052;-68
2023/02/26 02:00:04;;;;;;;2.92;0.68;;;17.50;72.70;;;;;;4993806;28;20504;-69
2023/02/26 02:02:29;;;;;;;1.50;0.60;;;17.50;72.80;;;;;;4995275;28;20030;-68
2023/02/26 02:04:55;;;;;;;2.20;0.90;;;17.50;73.00;;;;;;4994029;28;20130;-68
2023/02/26 02:07:21;;;;;;;2.58;0.70;;;17.50;72.90;;;;;;4993958;28;20397;-68
2023/02/26 02:09:46;;;;;;;1.48;0.70;;;17.50;73.00;;;;;;4995038;28;20022;-68
2023/02/26 02:12:30;;;;;;;1.25;0.60;;;17.40;73.20;;;;;;4993705;28;20034;-69
2023/02/26 02:14:56;;;;;;;1.30;0.60;;;17.50;73.00;;;;;;4975527;28;20018;-68
2023/02/26 02:17:36;;;;;;;2.30;0.60;;;17.40;73.00;;;;;;4975400;28;20034;-68
2023/02/26 02:20:21;;;;;;;4.13;0.88;;;17.40;73.10;;;;;;4989475;28;20485;-68
2023/02/26 02:23:11;;;;;;;1.75;0.50;;;17.40;73.20;;;;;;4935185;28;1196455;-68
2023/02/26 02:25:42;;;;;;;3.67;0.60;;;17.40;73.00;;;;;;4989913;28;20041;-68
2023/02/26 02:28:13;;;;;;;4.13;0.65;;;17.40;73.10;;;;;;4976595;28;20023;-68
2023/02/26 02:30:55;;;;;;;1.02;0.30;;;17.40;73.20;;;;;;4976604;28;20023;-68
2023/02/26 02:33:24;;;;;;;4.85;0.90;;;17.40;73.20;;;;;;4976468;28;20058;-68
2023/02/26 02:35:54;;;;;;;2.47;0.40;;;17.40;73.20;;;;;;4991091;28;20026;-68
2023/02/26 02:38:23;;;;;;;2.70;0.80;;;17.30;73.20;;;;;;4991359;28;20023;-68
2023/02/26 02:40:51;;;;;;;1.10;0.52;;;17.30;73.40;;;;;;4991228;28;20018;-68
2023/02/26 02:43:20;;;;;;;2.33;0.50;;;17.30;73.40;;;;;;4991310;28;20037;-68
2023/02/26 02:45:49;;;;;;;1.48;0.60;;;17.30;73.40;;;;;;4991116;28;20019;-68
2023/02/26 02:48:27;;;;;;;0.80;0.50;;;17.30;73.40;;;;;;4991007;28;20051;-68
2023/02/26 02:51:18;;;;;;;1.75;0.73;;;17.30;74.50;;;;;;4990771;28;20396;-68
2023/02/26 02:53:56;;;;;;;2.15;0.90;;;17.30;73.50;;;;;;4974500;28;20050;-68
2023/02/26 02:56:28;;;;;;;0.88;0.45;;;17.30;73.60;;;;;;4991114;28;20166;-68
2023/02/26 02:59:03;;;;;;;1.02;0.60;;;17.30;73.70;;;;;;4991006;28;20027;-68
2023/02/26 03:01:28;;;;;;;1.50;0.60;;;17.20;73.70;;;;;;4990776;28;20165;-68
2023/02/26 03:04:01;;;;;;;3.15;0.57;;;17.20;73.90;;;;;;4958693;28;20106;-68
2023/02/26 03:06:27;;;;;;;2.58;0.47;;;17.20;74.00;;;;;;4959213;28;20050;-68
2023/02/26 03:08:52;;;;;;;1.00;0.55;;;17.20;73.90;;;;;;4975677;28;20027;-68
2023/02/26 03:11:18;;;;;;;1.30;0.40;;;17.20;74.00;;;;;;4974242;28;20066;-68
2023/02/26 03:13:44;;;;;;;4.40;0.95;;;17.20;74.10;;;;;;4986697;28;20026;-68
2023/02/26 03:16:17;;;;;;;4.25;1.20;;;17.20;74.00;;;;;;4993860;28;20026;-68
2023/02/26 03:19:10;;;;;;;1.38;0.60;;;17.20;74.00;;;;;;4993783;28;20055;-68
2023/02/26 03:21:47;;;;;;;1.85;0.70;;;17.20;73.90;;;;;;4994696;28;20132;-68
2023/02/26 03:24:33;;;;;;;2.45;0.55;;;17.20;74.20;;;;;;4993584;28;20042;-68
2023/02/26 03:27:39;;;;;;;0.70;0.47;;;17.10;74.00;;;;;;4995079;28;20015;-68
2023/02/26 03:30:07;;;;;;;1.13;0.43;;;17.10;74.10;;;;;;4993698;28;20027;-68
2023/02/26 03:32:41;;;;;;;0.70;0.50;;;17.10;74.30;;;;;;4994923;28;20070;-68
2023/02/26 03:35:47;;;;;;;4.43;0.70;;;17.10;74.30;;;;;;4994799;28;20448;-68
2023/02/26 03:38:35;;;;;;;0.63;0.57;;;17.10;74.60;;;;;;5011711;28;20061;-68
2023/02/26 03:41:07;;;;;;;1.50;0.57;;;17.10;74.40;;;;;;5026028;28;20049;-68
2023/02/26 03:43:37;;;;;;;1.63;0.60;;;17.10;74.40;;;;;;5011515;28;20045;-69
2023/02/26 03:46:05;;;;;;;2.38;0.70;;;17.10;74.40;;;;;;5027958;28;20064;-68
2023/02/26 03:48:31;;;;;;;2.97;0.63;;;17.00;74.50;;;;;;5028345;28;20214;-68
2023/02/26 03:50:59;;;;;;;3.70;0.70;;;17.00;74.50;;;;;;5011891;28;20049;-69
2023/02/26 03:53:46;;;;;;;1.48;0.63;;;17.00;74.60;;;;;;5011365;28;20034;-68
2023/02/26 03:56:16;;;;;;;0.77;0.55;;;17.00;74.60;;;;;;5025105;28;20046;-68
2023/02/26 03:58:42;;;;;;;1.40;0.57;;;17.00;74.50;;;;;;5027275;28;20046;-68
2023/02/26 04:01:11;;;;;;;2.75;0.85;;;17.00;74.60;;;;;;5011625;28;20124;-68
2023/02/26 04:03:49;;;;;;;1.48;0.50;;;17.00;74.60;;;;;;4995278;28;20161;-68
2023/02/26 04:06:14;;;;;;;2.20;0.60;;;17.00;74.60;;;;;;4995863;28;20181;-68
2023/02/26 04:08:40;;;;;;;1.95;0.65;;;17.00;74.70;;;;;;4992561;28;20038;-69
2023/02/26 04:11:10;;;;;;;2.38;0.60;;;17.00;74.60;;;;;;4992831;28;20493;-68
2023/02/26 04:13:36;;;;;;;1.20;0.45;;;17.00;74.60;;;;;;4992854;28;20037;-68
2023/02/26 04:16:02;;;;;;;1.23;0.60;;;17.00;74.70;;;;;;4993995;28;20031;-68
2023/02/26 04:18:28;;;;;;;1.27;0.40;;;16.90;74.60;;;;;;4992853;28;20448;-68
2023/02/26 04:20:53;;;;;;;2.90;0.65;;;16.90;74.60;;;;;;4993547;28;20046;-68
2023/02/26 04:23:19;;;;;;;1.73;0.70;;;16.90;74.70;;;;;;4992501;28;20076;-68
2023/02/26 04:25:45;;;;;;;2.83;0.82;;;16.90;74.50;;;;;;4994082;28;20022;-68
2023/02/26 04:28:10;;;;;;;1.38;0.60;;;16.90;74.50;;;;;;4992684;28;20037;-68
2023/02/26 04:30:36;;;;;;;0.68;0.43;;;16.90;74.60;;;;;;4993750;28;20053;-68
2023/02/26 04:33:02;;;;;;;0.65;0.50;;;16.90;74.70;;;;;;4993828;28;20023;-68
2023/02/26 04:35:27;;;;;;;4.72;0.70;;;16.90;74.60;;;;;;4991941;28;20030;-68
2023/02/26 04:37:53;;;;;;;1.52;0.68;;;16.90;74.50;;;;;;4992505;28;20444;-68
2023/02/26 04:40:19;;;;;;;0.73;0.52;;;16.90;74.70;;;;;;4992206;28;20447;-68
2023/02/26 04:42:44;;;;;;;1.75;0.77;;;16.90;74.60;;;;;;4992401;28;20023;-68
2023/02/26 04:45:10;;;;;;;3.10;0.60;;;16.90;74.70;;;;;;4993680;28;20041;-68
2023/02/26 04:47:36;;;;;;;2.95;0.68;;;16.80;74.60;;;;;;4992102;28;20084;-68
2023/02/26 04:50:01;;;;;;;1.52;0.60;;;16.80;74.70;;;;;;4993326;28;20480;-68
2023/02/26 04:52:27;;;;;;;1.17;0.40;;;16.80;74.60;;;;;;4993559;28;20500;-68
2023/02/26 04:54:53;;;;;;;1.70;0.50;;;16.80;74.70;;;;;;4993474;28;20026;-68
2023/02/26 04:57:18;;;;;;;1.52;0.60;;;16.80;74.70;;;;;;4993205;28;20024;-68
2023/02/26 04:59:44;;;;;;;0.50;0.40;;;16.80;74.70;;;;;;4993280;28;20022;-68
2023/02/26 05:02:10;;;;;;;2.03;0.60;;;16.80;74.80;;;;;;4992155;28;20029;-68
2023/02/26 05:04:35;;;;;;;3.78;0.60;;;16.80;74.80;;;;;;4992895;28;20027;-68
2023/02/26 05:07:01;;;;;;;2.08;0.60;;;16.80;74.80;;;;;;4993280;28;20018;-68
2023/02/26 05:09:26;;;;;;;1.63;0.60;;;16.80;74.80;;;;;;4991638;28;20114;-68
2023/02/26 05:11:52;;;;;;;0.82;0.30;;;16.80;74.90;;;;;;4993179;28;20105;-68
2023/02/26 05:14:18;;;;;;;0.65;0.40;;;16.70;74.80;;;;;;4993080;28;20069;-68
2023/02/26 05:16:43;;;;;;;1.02;0.43;;;16.80;75.00;;;;;;4991942;28;20187;-68
2023/02/26 05:19:09;;;;;;;2.13;0.32;;;16.80;75.00;;;;;;4992924;28;20030;-68
2023/02/26 05:21:34;;;;;;;1.10;0.45;;;16.80;75.10;;;;;;4992762;28;20057;-68
2023/02/26 05:24:01;;;;;;;3.85;0.50;;;16.70;75.10;;;;;;4992914;28;20072;-68
2023/02/26 05:26:27;;;;;;;0.40;0.40;;;16.70;75.10;;;;;;4993085;28;20045;-68
2023/02/26 05:28:52;;;;;;;0.63;0.30;;;16.70;75.00;;;;;;4991841;28;20473;-68
2023/02/26 05:31:18;;;;;;;2.33;0.50;;;16.70;75.10;;;;;;4992897;28;20173;-68
2023/02/26 05:33:44;;;;;;;0.38;0.30;;;16.70;75.10;;;;;;4991498;28;20535;-68
2023/02/26 05:36:10;;;;;;;2.75;0.50;;;16.70;76.10;;;;;;4992988;28;20033;-68
2023/02/26 05:38:35;;;;;;;1.13;0.40;;;16.70;75.10;;;;;;4991426;28;20409;-68
2023/02/26 05:41:01;;;;;;;1.55;0.40;;;16.70;75.20;;;;;;4991815;28;20070;-68
2023/02/26 05:43:27;;;;;;;1.10;0.32;;;16.70;75.30;;;;;;4991548;28;20077;-68
2023/02/26 05:45:52;;;;;;;1.08;0.60;;;16.60;75.10;;;;;;4991658;28;20041;-68
2023/02/26 05:48:18;;;;;;;1.45;0.40;;;16.60;75.20;;;;;;4991370;28;20034;-68
2023/02/26 05:50:44;;;;;;;1.15;0.55;;;16.60;75.20;;;;;;4991651;28;20040;-68
2023/02/26 05:53:09;;;;;;;1.63;0.38;;;16.70;75.40;;;;;;4991806;28;20050;-68
2023/02/26 05:55:35;;;;;;;1.58;0.70;;;16.70;75.40;;;;;;4992590;28;20026;-68
2023/02/26 05:58:01;;;;;;;0.52;0.43;;;16.70;75.40;;;;;;4992722;28;20030;-68
2023/02/26 06:00:26;;;;;;;1.02;0.22;;;16.60;75.30;;;;;;4992593;28;20528;-68
2023/02/26 06:02:52;;;;;;;0.80;0.40;;;16.60;75.30;;;;;;4991279;28;20519;-68
2023/02/26 06:05:18;;;;;;;1.40;0.40;;;16.60;75.30;;;;;;4992561;28;20107;-68
2023/02/26 06:07:44;;;;;;;0.70;0.40;;;16.60;75.30;;;;;;4981128;28;20038;-68
2023/02/26 06:10:10;;;;;;;1.02;0.43;;;16.60;75.30;;;;;;4975400;28;20488;-68
2023/02/26 06:12:36;;;;;;;0.90;0.40;;;16.60;75.30;;;;;;4992335;28;20026;-68
2023/02/26 06:15:02;;;;;;;1.30;0.55;;;16.60;75.30;;;;;;4991566;28;20101;-68
2023/02/26 06:17:28;;;;;;;1.92;0.40;;;16.60;75.30;;;;;;4990788;28;20054;-68
2023/02/26 06:19:53;;;;;;;2.30;0.60;;;16.60;75.40;;;;;;4992607;28;20440;-68
2023/02/26 06:22:19;;;;;;;0.80;0.50;;;16.60;75.40;;;;;;4994367;28;20101;-68
2023/02/26 06:24:45;;;;;;;0.55;0.50;;;16.60;75.40;;;;;;4994751;28;20096;-68
2023/02/26 06:27:10;;;;;;;2.25;0.63;;;16.60;75.40;;;;;;4996246;28;20026;-68
2023/02/26 06:29:36;;;;;;;1.45;0.40;;;16.50;75.40;;;;;;4995804;28;20029;-69
2023/02/26 06:32:03;;;;;;;0.60;0.40;;;16.50;75.40;;;;;;4995809;28;20034;-68
2023/02/26 06:34:28;;;;;;;0.70;0.35;;;16.50;75.30;;;;;;4995844;28;20556;-68
2023/02/26 06:36:54;;;;;;;2.30;0.40;;;16.50;75.40;;;;;;4995938;28;20113;-68
2023/02/26 06:39:20;;;;;;;0.95;0.35;;;16.50;75.40;;;;;;4995631;28;20022;-68
2023/02/26 06:41:45;;;;;;;0.38;0.38;;;16.50;75.40;;;;;;4995812;28;20018;-69
2023/02/26 06:44:11;;;;;;;1.33;0.50;;;16.50;75.40;;;;;;4995634;28;20026;-69
2023/02/26 06:46:37;;;;;;;2.75;0.50;;;16.50;75.50;;;;;;4995419;28;20061;-68
2023/02/26 06:49:03;;;;;;;0.77;0.38;;;16.50;75.60;;;;;;4995874;28;20436;-68
2023/02/26 06:51:29;;;;;;;2.72;0.40;;;16.40;75.60;;;;;;4994384;28;20041;-68
2023/02/26 06:53:55;;;;;;;0.82;0.75;;;16.50;75.60;;;;;;4994495;28;20045;-68
2023/02/26 06:56:21;;;;;;;0.90;0.50;;;16.40;75.60;;;;;;4994317;28;20481;-68
2023/02/26 06:58:47;;;;;;;0.85;0.30;;;16.40;75.60;;;;;;4994131;28;20378;-68
2023/02/26 07:01:13;;;;;;;1.70;0.43;;;16.40;75.60;;;;;;4993898;28;20033;-68
2023/02/26 07:03:38;;;;;;;1.02;0.35;;;16.40;75.60;;;;;;4994091;28;20102;-68
2023/02/26 07:06:06;;;;;;;1.17;0.50;;;16.40;75.70;;;;;;4995254;28;20030;-69
2023/02/26 07:08:32;;;;;;;0.85;0.30;;;16.40;75.80;;;;;;4978222;28;20018;-68
2023/02/26 07:10:58;;;;;;;0.98;0.30;;;16.40;75.80;;;;;;4994111;28;20477;-68
2023/02/26 07:13:24;;;;;;;0.50;0.30;;;16.40;75.80;;;;;;4995051;28;20057;-68
2023/02/26 07:15:49;;;;;;;1.20;0.45;;;16.40;75.80;;;;;;4993853;28;20061;-69
2023/02/26 07:18:15;;;;;;;1.60;0.40;;;16.40;75.90;;;;;;4993600;28;20105;-69
2023/02/26 07:20:41;;;;;;;0.63;0.40;;;16.40;75.90;;;;;;4993383;28;20023;-68
2023/02/26 07:23:07;;;;;;;0.98;0.40;;;16.30;75.90;;;;;;4994010;28;20019;-68
2023/02/26 07:25:33;;;;;;;1.42;0.30;;;16.40;75.90;;;;;;4993383;28;20088;-68
2023/02/26 07:27:58;;;;;;;1.75;0.40;;;16.40;75.90;;;;;;4994385;28;20096;-68
2023/02/26 07:30:25;;;;;;;1.00;0.35;;;16.30;76.10;;;;;;4994439;28;20516;-68
2023/02/26 07:32:50;;;;;;;1.55;0.68;;;16.30;76.00;;;;;;4993825;28;20033;-69
2023/02/26 07:35:16;;;;;;;1.45;0.80;;;16.30;75.90;;;;;;4994658;28;20179;-69
2023/02/26 07:37:42;;;;;;;1.52;0.47;;;16.30;75.80;;;;;;4994438;28;20080;-69
2023/02/26 07:40:08;;;;;;;0.52;0.50;;;16.30;75.80;;;;;;4992948;28;20034;-68
2023/02/26 07:42:33;;;;;;;3.28;0.52;;;16.30;76.10;;;;;;4994497;28;20385;-68
2023/02/26 07:44:59;;;;;;;1.08;0.80;;;16.30;76.00;;;;;;4993236;28;20026;-68
2023/02/26 07:47:25;;;;;;;5.93;0.65;;;16.30;75.90;;;;;;4994057;28;20026;-69
2023/02/26 07:49:51;;;;;;;1.33;0.60;;;16.30;76.10;;;;;;4993622;28;20030;-68
2023/02/26 07:52:17;;;;;;;1.35;0.50;;;16.30;76.10;;;;;;4992594;28;20037;-68
2023/02/26 07:54:42;;;;;;;2.45;0.40;;;16.30;76.00;;;;;;4993326;28;20041;-69
2023/02/26 07:57:08;;;;;;;1.75;0.65;;;16.30;76.00;;;;;;4993646;28;20022;-69
2023/02/26 07:59:34;;;;;;;1.13;0.40;;;16.30;76.00;;;;;;4991800;28;20116;-68
2023/02/26 08:01:59;;;;;;;0.57;0.40;;;16.30;76.10;;;;;;4993456;28;20120;-69
2023/02/26 08:04:25;;;;;;;2.30;0.68;;;16.30;76.00;;;;;;4993330;28;20026;-69
2023/02/26 08:06:53;;;;;;;0.40;0.35;;;16.30;76.20;;;;;;4993343;28;20860;-69
2023/02/26 08:09:20;;;;;;;1.65;0.47;;;16.30;76.10;;;;;;4993349;28;20030;-68
2023/02/26 08:11:46;;;;;;;0.80;0.40;;;16.30;76.20;;;;;;4991934;28;20069;-68
2023/02/26 08:14:12;;;;;;;0.57;0.28;;;16.30;76.10;;;;;;4991761;28;20092;-68
2023/02/26 08:16:38;;;;;;;1.90;0.40;;;16.30;76.00;;;;;;4991878;28;20431;-68
2023/02/26 08:19:03;;;;;;;0.60;0.40;;;16.30;76.20;;;;;;4993122;28;20110;-68
2023/02/26 08:21:29;;;;;;;0.68;0.40;;;16.30;76.20;;;;;;4991720;28;20049;-68
2023/02/26 08:23:55;;;;;;;1.23;0.50;;;16.20;76.00;;;;;;4991777;28;20081;-68
2023/02/26 08:26:20;;;;;;;1.45;0.60;;;16.20;76.10;;;;;;4993023;28;20544;-68
2023/02/26 08:28:47;;;;;;;1.02;0.50;;;16.30;76.10;;;;;;4991490;28;20035;-68
2023/02/26 08:31:13;;;;;;;0.45;0.40;;;16.20;76.00;;;;;;4991792;28;20396;-68
2023/02/26 08:33:38;;;;;;;5.15;0.50;;;16.20;77.00;;;;;;4991656;28;20034;-68
2023/02/26 08:36:05;;;;;;;2.38;0.57;;;16.20;76.10;;;;;;4992788;28;20048;-68
2023/02/26 08:38:30;;;;;;;0.57;0.50;;;16.20;76.10;;;;;;4991637;28;20057;-68
2023/02/26 08:40:56;;;;;;;0.63;0.40;;;16.20;76.00;;;;;;4991539;28;20417;-68
2023/02/26 08:43:22;;;;;;;1.63;0.35;;;16.20;76.00;;;;;;4992481;28;20424;-68
2023/02/26 08:45:48;;;;;;;0.80;0.45;;;16.20;76.00;;;;;;4992279;28;20404;-69
2023/02/26 08:48:14;;;;;;;1.05;0.43;;;16.20;76.00;;;;;;4991356;28;20065;-68
2023/02/26 08:50:39;;;;;;;0.63;0.32;;;16.20;76.10;;;;;;4991409;28;20046;-68
2023/02/26 08:53:05;;;;;;;0.85;0.25;;;16.20;77.20;;;;;;4991453;28;20102;-68
2023/02/26 08:55:31;;;;;;;1.38;0.40;;;16.20;76.10;;;;;;4992489;28;20041;-68
2023/02/26 08:57:57;;;;;;;0.80;0.40;;;16.20;76.00;;;;;;4990883;28;20027;-68
2023/02/26 09:00:22;;;;;;;1.23;0.60;;;16.20;76.00;;;;;;4992359;28;20031;-69
2023/02/26 09:02:48;;;;;;;2.35;0.52;;;16.20;76.10;;;;;;4992369;28;20033;-69
2023/02/26 09:05:13;;;;;;;0.65;0.50;;;16.10;76.00;;;;;;4992442;28;20030;-68
2023/02/26 09:07:40;;;;;;;0.55;0.45;;;16.20;76.20;;;;;;4991093;28;20026;-68
2023/02/26 09:10:06;;;;;;;1.45;0.50;;;16.10;76.00;;;;;;4975272;28;20276;-68
2023/02/26 09:12:32;;;;;;;1.23;0.40;;;16.10;76.00;;;;;;4992321;28;20037;-68
2023/02/26 09:14:57;;;;;;;1.10;0.30;;;16.10;76.10;;;;;;4991117;28;20026;-69
2023/02/26 09:17:24;;;;;;;1.52;0.40;;;16.10;76.20;;;;;;4992235;28;20026;-68
2023/02/26 09:19:49;;;;;;;1.05;0.40;;;16.10;76.10;;;;;;4990637;28;20022;-68
2023/02/26 09:22:16;;;;;;;0.50;0.20;;;16.10;76.20;;;;;;4990991;28;20535;-69
2023/02/26 09:24:41;;;;;;;0.80;0.38;;;16.10;76.20;;;;;;4992079;28;20015;-68
2023/02/26 09:27:07;;;;;;;2.28;0.45;;;16.10;76.20;;;;;;4990937;28;20037;-69
2023/02/26 09:29:33;;;;;;;0.85;0.30;;;16.10;76.10;;;;;;4992112;28;20040;-69
2023/02/26 09:31:58;;;;;;;1.42;0.30;;;16.10;76.20;;;;;;4990874;28;20145;-68
2023/02/26 09:34:24;;;;;;;3.10;0.50;;;16.10;76.10;;;;;;4992353;28;20034;-68
2023/02/26 09:36:50;;;;;;;1.50;0.55;;;16.10;76.10;;;;;;4991961;28;20034;-69
2023/02/26 09:39:15;;;;;;;1.92;0.50;;;16.10;76.00;;;;;;4991774;28;20089;-68
2023/02/26 09:41:45;;;;;;;1.15;0.45;;;16.10;76.20;;;;;;4990917;28;20026;-68
2023/02/26 09:44:24;;;;;;;0.60;0.35;;;16.00;76.10;;;;;;4990756;28;20030;-68
2023/02/26 09:47:07;;;;;;;0.35;0.30;;;16.00;76.10;;;;;;4990863;28;20097;-69
2023/02/26 09:49:49;;;;;;;2.22;0.50;;;16.00;76.00;;;;;;4991040;28;20026;-68
2023/02/26 09:52:15;;;;;;;0.60;0.40;;;16.10;76.20;;;;;;4990850;28;20042;-68
2023/02/26 09:54:52;;;;;;;1.25;0.30;;;16.00;76.20;;;;;;4991563;28;20027;-68
2023/02/26 09:57:29;;;;;;;1.38;0.52;;;16.00;76.10;;;;;;4992887;28;20036;-68
2023/02/26 09:59:55;;;;;;;1.17;0.47;;;16.00;76.30;;;;;;4994358;28;20074;-69
2023/02/26 10:02:28;;;;;;;0.45;0.32;;;16.00;76.20;;;;;;4994946;28;20058;-68
2023/02/26 10:05:15;;;;;;;0.22;0.20;;;16.00;76.20;;;;;;4995519;28;20110;-68
2023/02/26 10:07:44;;;;;;;0.88;0.20;;;16.00;76.10;;;;;;4995691;28;20030;-69
2023/02/26 10:10:28;;;;;;;1.27;0.40;;;16.00;76.20;;;;;;4995945;28;20085;-68
2023/02/26 10:12:54;;;;;;;1.38;0.60;;;16.00;76.20;;;;;;4994310;28;20014;-68
2023/02/26 10:15:22;;;;;;;4.35;0.60;;;16.00;76.20;;;;;;4994989;28;20019;-69
2023/02/26 10:18:12;;;;;;;0.50;0.30;;;16.00;76.20;;;;;;4994813;28;20022;-68
2023/02/26 10:20:54;;;;;;;0.63;0.30;;;16.00;76.20;;;;;;4994887;28;20019;-68
2023/02/26 10:23:40;;;;;;;4.22;0.43;;;16.00;76.20;;;;;;4994831;28;20038;-69
2023/02/26 10:26:09;;;;;;;2.25;0.40;;;16.00;76.20;;;;;;4994553;28;20030;-68
2023/02/26 10:28:59;;;;;;;3.88;0.70;;;16.00;76.30;;;;;;4996150;28;20485;-69
2023/02/26 10:31:50;;;;;;;1.25;0.30;;;16.00;76.30;;;;;;4996135;28;20030;-69
2023/02/26 10:34:39;;;;;;;0.47;0.43;;;16.00;76.20;;;;;;4995913;28;20034;-68
2023/02/26 10:37:15;;;;;;;0.65;0.30;;;16.00;76.20;;;;;;4994753;28;20061;-68
2023/02/26 10:40:11;;;;;;;1.48;0.40;;;16.00;76.30;;;;;;4994724;28;20030;-68
2023/02/26 10:43:11;;;;;;;0.98;0.60;;;16.00;76.30;;;;;;4995892;28;20489;-68
2023/02/26 10:46:15;;;;;;;0.70;0.20;;;15.90;76.10;;;;;;5013076;28;20041;-69
2023/02/26 10:49:04;;;;;;;1.27;0.50;;;16.00;76.20;;;;;;5013043;28;20034;-68
2023/02/26 10:51:37;;;;;;;3.63;0.50;;;15.90;76.10;;;;;;5027773;28;20117;-69
2023/02/26 10:54:04;;;;;;;;;;;15.90;76.20;;;;;;5013202;28;20034;-68
2023/02/26 10:56:31;;;;;;;0.45;0.30;;;15.90;76.20;;;;;;5012976;28;19944;-68
2023/02/26 10:58:56;;;;;;;2.13;0.50;;;15.90;76.30;;;;;;5012785;28;20034;-68
2023/02/26 11:01:24;;;;;;;1.70;0.50;;;15.90;76.30;;;;;;4996884;28;20034;-68
2023/02/26 11:03:55;;;;;;;1.02;0.60;;;15.90;76.30;;;;;;4977168;28;20097;-68
2023/02/26 11:06:33;;;;;;;2.35;0.45;;;15.90;76.30;;;;;;4984246;28;20115;-68
2023/02/26 11:08:59;;;;;;;0.30;0.30;;;15.90;76.40;;;;;;4989688;28;20034;-68
2023/02/26 11:11:44;;;;;;;0.65;0.40;;;15.90;76.50;;;;;;5012966;28;20125;-68
2023/02/26 11:14:10;;;;;;;0.50;0.30;;;15.90;76.40;;;;;;4992713;28;20026;-68
2023/02/26 11:16:52;;;;;;;0.65;0.40;;;15.90;76.40;;;;;;4993040;28;20041;-68
2023/02/26 11:19:26;;;;;;;1.45;0.47;;;15.90;76.40;;;;;;4992906;28;20407;-69
2023/02/26 11:21:52;;;;;;;1.95;0.40;;;15.90;76.40;;;;;;4988796;28;20050;-69
2023/02/26 11:24:39;;;;;;;1.00;0.30;;;15.90;76.50;;;;;;4974552;28;20027;-68
2023/02/26 11:27:08;;;;;;;0.82;0.47;;;15.90;76.10;;;;;;4974295;28;20026;-68
2023/02/26 11:29:41;;;;;;;1.55;0.40;;;15.90;75.40;;;;;;4972657;28;20412;-68
2023/02/26 11:32:19;;;;;;;2.90;0.80;;;16.00;74.50;;;;;;4989646;28;20035;-67
2023/02/26 11:34:47;;;;;;;5.72;0.50;;;15.90;74.00;;;;;;4989792;28;20030;-67
2023/02/26 11:37:12;;;;;;;0.50;0.50;;;16.00;73.90;;;;;;4974994;28;20441;-67
2023/02/26 11:39:38;;;;;;;2.38;0.40;;;16.00;73.60;;;;;;4974079;28;20034;-68
2023/02/26 11:42:04;;;;;;;0.45;0.32;;;16.00;73.50;;;;;;4973848;28;20102;-68
2023/02/26 11:44:38;;;;;;;0.88;0.30;;;16.00;73.40;;;;;;4990228;28;20393;-68
2023/02/26 11:47:11;;;;;;;1.42;0.45;;;16.00;73.30;;;;;;4990108;28;20026;-67
2023/02/26 11:49:41;;;;;;;0.77;0.40;;;16.00;73.20;;;;;;4975318;28;20054;-68
2023/02/26 11:52:17;;;;;;;0.88;0.40;;;16.10;73.10;;;;;;4974826;28;20109;-68
2023/02/26 11:54:44;;;;;;;1.20;0.63;;;16.10;73.00;;;;;;4990065;28;20023;-68
2023/02/26 11:57:22;;;;;;;1.75;0.32;;;16.10;72.90;;;;;;4974978;28;20023;-68
2023/02/26 11:59:49;;;;;;;1.30;0.40;;;16.10;72.80;;;;;;4991895;28;20022;-68
2023/02/26 12:02:15;;;;;;;0.93;0.40;;;16.10;72.80;;;;;;4994038;28;20030;-68
2023/02/26 12:04:43;;;;;;;1.40;0.50;;;16.10;72.70;;;;;;4992803;28;20027;-68
2023/02/26 12:07:11;;;;;;;1.25;0.50;;;16.20;72.60;;;;;;4992930;28;20018;-68
2023/02/26 12:09:38;;;;;;;1.75;0.38;;;16.20;72.50;;;;;;4993043;28;20058;-68
2023/02/26 12:12:21;;;;;;;1.33;0.35;;;16.20;72.50;;;;;;4994190;28;20081;-67
2023/02/26 12:14:53;;;;;;;1.80;0.40;;;16.20;72.30;;;;;;4994031;28;20038;-68
2023/02/26 12:17:45;;;;;;;2.42;0.32;;;16.20;72.30;;;;;;4992815;28;20022;-68
2023/02/26 12:20:22;;;;;;;0.88;0.40;;;16.20;72.20;;;;;;4992069;28;20488;-68
2023/02/26 12:22:58;;;;;;;0.77;0.40;;;16.20;72.20;;;;;;4976721;28;20089;-68
2023/02/26 12:25:30;;;;;;;1.35;0.30;;;16.20;72.20;;;;;;4992609;28;20022;-68
2023/02/26 12:28:10;;;;;;;1.45;0.43;;;16.30;72.10;;;;;;4993853;28;20049;-67
2023/02/26 12:31:02;;;;;;;0.98;0.40;;;16.30;72.10;;;;;;4993629;28;20038;-68
2023/02/26 12:33:51;;;;;;;0.50;0.40;;;16.30;72.00;;;;;;4992582;28;20030;-68
2023/02/26 12:36:35;;;;;;;0.82;0.40;;;16.30;72.00;;;;;;4976167;28;20062;-68
2023/02/26 12:39:35;;;;;;;5.88;0.40;;;16.30;71.80;;;;;;4993692;28;20026;-68
2023/02/26 12:42:29;;;;;;;1.45;0.40;;;16.30;71.40;;;;;;4992218;28;20022;-68
2023/02/26 12:45:09;;;;;;;1.58;0.40;;;16.30;71.40;;;;;;4993473;28;20034;-68
2023/02/26 12:47:47;;;;;;;3.45;0.52;;;16.30;71.20;;;;;;4993913;28;20157;-68
2023/02/26 12:50:37;;;;;;;2.38;0.50;;;16.30;71.10;;;;;;4992794;28;20030;-68
2023/02/26 12:53:13;;;;;;;2.13;0.60;;;16.30;71.20;;;;;;4976923;28;20034;-68
2023/02/26 12:55:57;;;;;;;1.92;0.50;;;16.30;71.40;;;;;;4992474;28;20080;-68
2023/02/26 12:58:32;;;;;;;1.92;0.47;;;16.40;71.40;;;;;;4993638;28;20038;-68
2023/02/26 13:01:12;;;;;;;1.40;0.32;;;16.40;71.40;;;;;;4992608;28;20022;-68
2023/02/26 13:03:45;;;;;;;3.00;0.60;;;16.40;71.50;;;;;;4993504;28;20456;-68
2023/02/26 13:06:46;;;;;;;3.42;0.73;;;16.40;71.60;;;;;;4992459;28;20054;-68
2023/02/26 13:09:49;;;;;;;2.53;0.55;;;16.40;71.60;;;;;;5002882;28;20038;-68